Time;durP1;ratioP1;P1;durP2;ratioP2;P2;SDS_P1;SDS_P2;PMS_P1;PMS_P2;Temp;Humidity;BMP_temperature;BMP_pressure;BME280_temperature;BME280_humidity;BME280_pressure;Samples;Min_cycle;Max_cycle;Signal;HPM_P1;HPM_P2
2023/05/02 00:02:17;;;;;;;3.25;2.38;;;10.60;99.90;;;;;;5073621;28;20193;-66
2023/05/02 00:04:44;;;;;;;3.60;2.28;;;10.60;99.90;;;;;;5073852;28;20190;-67
2023/05/02 00:07:11;;;;;;;2.95;2.38;;;10.50;99.90;;;;;;5073715;28;20352;-66
2023/05/02 00:09:38;;;;;;;4.75;2.10;;;10.60;99.90;;;;;;5073636;28;20225;-66
2023/05/02 00:12:05;;;;;;;4.88;2.63;;;10.60;99.90;;;;;;5073708;28;20288;-67
2023/05/02 00:14:32;;;;;;;5.57;2.00;;;10.60;99.90;;;;;;5073289;28;20217;-66
2023/05/02 00:16:59;;;;;;;5.85;2.10;;;10.60;99.90;;;;;;5074367;28;20221;-66
2023/05/02 00:19:28;;;;;;;3.28;2.30;;;10.50;99.90;;;;;;5074369;28;20189;-66
2023/05/02 00:21:55;;;;;;;3.42;2.33;;;10.50;99.90;;;;;;5074271;28;20229;-66
2023/05/02 00:24:22;;;;;;;3.35;2.60;;;10.50;99.90;;;;;;5073086;28;20246;-66
2023/05/02 00:26:49;;;;;;;4.95;2.88;;;10.50;99.90;;;;;;5073125;28;20304;-66
2023/05/02 00:29:16;;;;;;;2.70;2.13;;;10.50;99.90;;;;;;5072178;28;20235;-66
2023/05/02 00:31:43;;;;;;;3.47;2.10;;;10.50;99.90;;;;;;5073075;28;20540;-66
2023/05/02 00:34:11;;;;;;;3.00;2.25;;;10.50;99.90;;;;;;5071616;28;20567;-66
2023/05/02 00:36:39;;;;;;;3.85;2.10;;;10.50;99.90;;;;;;5072826;28;20233;-66
2023/05/02 00:39:06;;;;;;;3.25;2.08;;;10.50;99.90;;;;;;5072132;28;20251;-66
2023/05/02 00:41:33;;;;;;;3.15;2.13;;;10.40;99.90;;;;;;5073140;28;20197;-66
2023/05/02 00:44:00;;;;;;;2.85;1.92;;;10.40;99.90;;;;;;5072081;28;20229;-66
2023/05/02 00:46:27;;;;;;;4.47;2.13;;;10.40;99.90;;;;;;5072721;28;20196;-66
2023/05/02 00:48:54;;;;;;;2.95;2.20;;;10.40;99.90;;;;;;5072460;28;20280;-67
2023/05/02 00:51:22;;;;;;;3.53;2.20;;;10.50;99.90;;;;;;5072808;28;20280;-66
2023/05/02 00:53:51;;;;;;;3.10;2.05;;;10.50;99.90;;;;;;5072228;28;20217;-67
2023/05/02 00:56:18;;;;;;;4.53;2.47;;;10.50;99.90;;;;;;5072872;28;20201;-66
2023/05/02 00:58:46;;;;;;;2.83;2.22;;;10.50;99.90;;;;;;5072556;28;20682;-66
2023/05/02 01:01:26;;;;;;;3.92;2.90;;;10.50;99.90;;;;;;5072583;28;20229;-67
2023/05/02 01:04:04;;;;;;;4.20;2.63;;;10.50;99.90;;;;;;5072055;28;20194;-66
2023/05/02 01:06:43;;;;;;;6.10;3.85;;;10.50;99.90;;;;;;5072536;28;20214;-66
2023/05/02 01:09:22;;;;;;;4.28;2.85;;;10.50;99.90;;;;;;5072309;28;20221;-66
2023/05/02 01:11:56;;;;;;;4.00;2.90;;;10.50;99.90;;;;;;5072482;28;20189;-66
2023/05/02 01:14:26;;;;;;;4.80;3.38;;;10.50;99.90;;;;;;5072093;28;20543;-67
2023/05/02 01:16:53;;;;;;;3.63;3.15;;;10.50;99.90;;;;;;5072403;28;20782;-66
2023/05/02 01:19:28;;;;;;;3.25;2.42;;;10.50;99.90;;;;;;5072378;28;20694;-66
2023/05/02 01:21:58;;;;;;;3.90;2.75;;;10.50;99.90;;;;;;5072498;28;20197;-67
2023/05/02 01:24:32;;;;;;;4.18;2.78;;;10.50;99.90;;;;;;5072737;28;20284;-66
2023/05/02 01:27:08;;;;;;;3.38;2.35;;;10.50;99.90;;;;;;5072438;28;20300;-66
2023/05/02 01:29:39;;;;;;;4.70;2.25;;;10.50;99.90;;;;;;5071629;28;20276;-67
2023/05/02 01:32:08;;;;;;;5.20;2.70;;;10.50;99.90;;;;;;5072204;28;20229;-66
2023/05/02 01:34:38;;;;;;;4.00;3.10;;;10.50;99.90;;;;;;5072544;28;20636;-66
2023/05/02 01:37:09;;;;;;;3.58;3.08;;;10.50;99.90;;;;;;5072719;28;20286;-67
2023/05/02 01:39:38;;;;;;;4.53;3.22;;;10.50;99.90;;;;;;5072110;28;20193;-66
2023/05/02 01:42:05;;;;;;;4.20;2.47;;;10.40;99.90;;;;;;5072194;28;20190;-66
2023/05/02 01:44:34;;;;;;;3.65;2.65;;;10.40;99.90;;;;;;5072023;28;20239;-66
2023/05/02 01:47:06;;;;;;;4.18;2.80;;;10.30;99.90;;;;;;5074817;28;20201;-66
2023/05/02 01:49:34;;;;;;;3.20;2.65;;;10.40;99.90;;;;;;5076029;28;20222;-66
2023/05/02 01:52:05;;;;;;;3.85;2.38;;;10.40;99.90;;;;;;5075958;28;20182;-66
2023/05/02 01:54:35;;;;;;;3.60;2.80;;;10.50;99.90;;;;;;5075739;28;20671;-66
2023/05/02 01:57:05;;;;;;;3.00;2.30;;;10.50;99.90;;;;;;5075807;28;20189;-66
2023/05/02 01:59:33;;;;;;;3.55;2.40;;;10.40;99.90;;;;;;5074022;28;20233;-66
2023/05/02 02:02:04;;;;;;;3.85;1.92;;;10.40;99.90;;;;;;5075676;28;20232;-66
2023/05/02 02:04:33;;;;;;;2.75;2.33;;;10.40;99.90;;;;;;5075556;28;20221;-66
2023/05/02 02:07:04;;;;;;;3.35;2.13;;;10.40;99.90;;;;;;5075268;28;20272;-66
2023/05/02 02:09:31;;;;;;;2.95;2.30;;;10.40;99.90;;;;;;5075579;28;20243;-66
2023/05/02 02:12:05;;;;;;;4.97;2.50;;;10.40;99.90;;;;;;5075639;28;20189;-66
2023/05/02 02:14:35;;;;;;;3.30;2.65;;;10.40;99.90;;;;;;5074980;28;20221;-66
2023/05/02 02:17:11;;;;;;;4.28;2.85;;;10.40;99.90;;;;;;5075630;28;20223;-66
2023/05/02 02:19:39;;;;;;;4.25;3.13;;;10.40;99.90;;;;;;5075464;28;20221;-66
2023/05/02 02:22:08;;;;;;;7.38;3.80;;;10.50;99.90;;;;;;5075355;28;20791;-66
2023/05/02 02:24:37;;;;;;;4.30;3.22;;;10.50;99.90;;;;;;5074013;28;20281;-66
2023/05/02 02:27:04;;;;;;;5.53;3.65;;;10.60;99.90;;;;;;5074996;28;20186;-66
2023/05/02 02:29:32;;;;;;;4.30;3.03;;;10.60;99.90;;;;;;5075097;28;20241;-66
2023/05/02 02:31:59;;;;;;;4.80;3.47;;;10.60;99.90;;;;;;5074408;28;20217;-66
2023/05/02 02:34:28;;;;;;;4.30;2.75;;;10.60;99.90;;;;;;5075262;28;20252;-66
2023/05/02 02:37:00;;;;;;;5.10;2.75;;;10.50;99.90;;;;;;5074816;28;20272;-66
2023/05/02 02:39:41;;;;;;;3.33;2.60;;;10.50;99.90;;;;;;5075036;28;20228;-66
2023/05/02 02:42:13;;;;;;;2.80;2.30;;;10.50;99.90;;;;;;5074431;28;20204;-66
2023/05/02 02:44:49;;;;;;;2.97;2.58;;;10.50;99.90;;;;;;5075232;28;20276;-66
2023/05/02 02:47:24;;;;;;;3.45;2.70;;;10.50;99.90;;;;;;5075020;28;20217;-66
2023/05/02 02:50:09;;;;;;;4.13;2.88;;;10.50;99.90;;;;;;5075065;28;20620;-66
2023/05/02 02:52:48;;;;;;;3.00;2.45;;;10.50;99.90;;;;;;5074780;28;20201;-65
2023/05/02 02:55:29;;;;;;;3.35;2.38;;;10.50;99.90;;;;;;5075066;28;20224;-66
2023/05/02 02:58:00;;;;;;;4.53;3.20;;;10.50;99.90;;;;;;5073976;28;20213;-66
2023/05/02 03:00:28;;;;;;;3.20;2.47;;;10.50;99.90;;;;;;5074886;28;20193;-66
2023/05/02 03:02:56;;;;;;;4.45;2.90;;;10.50;99.90;;;;;;5074743;28;20236;-66
2023/05/02 03:05:25;;;;;;;3.83;2.85;;;10.50;99.90;;;;;;5074825;28;20211;-66
2023/05/02 03:07:52;;;;;;;3.60;2.90;;;10.40;99.90;;;;;;5074198;28;20312;-66
2023/05/02 03:10:19;;;;;;;4.50;3.03;;;10.30;99.90;;;;;;5074396;28;20197;-66
2023/05/02 03:12:46;;;;;;;4.40;2.95;;;10.30;99.90;;;;;;5074769;28;20194;-66
2023/05/02 03:15:30;;;;;;;3.28;2.78;;;10.30;99.90;;;;;;5074455;28;20225;-66
2023/05/02 03:17:57;;;;;;;3.60;2.85;;;10.30;99.90;;;;;;5074730;28;20236;-66
2023/05/02 03:20:26;;;;;;;3.70;2.30;;;10.40;99.90;;;;;;5074758;28;20277;-66
2023/05/02 03:22:53;;;;;;;2.40;1.60;;;10.40;99.90;;;;;;5074757;28;20198;-66
2023/05/02 03:25:19;;;;;;;2.70;2.33;;;10.40;99.90;;;;;;5074532;28;20691;-66
2023/05/02 03:27:47;;;;;;;3.17;1.73;;;10.40;99.90;;;;;;5074148;28;20679;-66
2023/05/02 03:30:14;;;;;;;3.60;2.40;;;10.40;99.90;;;;;;5074162;28;20192;-66
2023/05/02 03:32:41;;;;;;;3.65;2.40;;;10.50;99.90;;;;;;5073674;28;20193;-66
2023/05/02 03:35:08;;;;;;;3.05;2.08;;;10.50;99.90;;;;;;5074169;28;20189;-66
2023/05/02 03:37:38;;;;;;;5.20;2.15;;;10.50;99.90;;;;;;5072070;28;20217;-66
2023/05/02 03:40:06;;;;;;;3.20;2.20;;;10.40;99.90;;;;;;5073451;28;20186;-66
2023/05/02 03:42:38;;;;;;;2.78;2.05;;;10.40;99.90;;;;;;5073198;28;20188;-66
2023/05/02 03:45:06;;;;;;;4.45;2.72;;;10.40;99.90;;;;;;5073754;28;20205;-66
2023/05/02 03:47:33;;;;;;;4.10;2.60;;;10.40;99.90;;;;;;5073487;28;20731;-66
2023/05/02 03:50:02;;;;;;;4.47;3.25;;;10.50;99.90;;;;;;5073565;28;20281;-66
2023/05/02 03:52:29;;;;;;;4.22;2.65;;;10.50;99.90;;;;;;5073151;28;20186;-66
2023/05/02 03:54:58;;;;;;;3.83;2.38;;;10.50;99.90;;;;;;5073813;28;20227;-66
2023/05/02 03:57:25;;;;;;;3.60;2.40;;;10.50;99.90;;;;;;5073670;28;20248;-66
2023/05/02 03:59:52;;;;;;;3.90;2.38;;;10.50;99.90;;;;;;5073487;28;20284;-66
2023/05/02 04:02:18;;;;;;;6.38;2.13;;;10.60;99.90;;;;;;5073774;28;20226;-66
2023/05/02 04:04:46;;;;;;;2.90;2.15;;;10.60;99.90;;;;;;5073580;28;20257;-66
2023/05/02 04:07:17;;;;;;;5.30;2.90;;;10.60;99.90;;;;;;5073375;28;20189;-66
2023/05/02 04:09:44;;;;;;;4.20;2.55;;;10.60;99.90;;;;;;5073300;28;20300;-66
2023/05/02 04:12:12;;;;;;;3.95;2.45;;;10.60;99.90;;;;;;5072820;28;20236;-66
2023/05/02 04:14:39;;;;;;;4.07;2.92;;;10.70;99.90;;;;;;5073116;28;20259;-67
2023/05/02 04:17:06;;;;;;;3.08;2.15;;;10.70;99.90;;;;;;5073442;28;20217;-66
2023/05/02 04:19:34;;;;;;;2.78;2.00;;;10.70;99.90;;;;;;5073164;28;20715;-66
2023/05/02 04:22:02;;;;;;;3.05;2.33;;;10.70;99.90;;;;;;5072854;28;20281;-67
2023/05/02 04:24:29;;;;;;;3.88;2.70;;;10.70;99.90;;;;;;5073398;28;20193;-66
2023/05/02 04:26:56;;;;;;;4.35;3.15;;;10.80;99.90;;;;;;5073336;28;20225;-67
2023/05/02 04:29:24;;;;;;;3.60;2.53;;;10.80;99.90;;;;;;5069990;28;20210;-67
2023/05/02 04:31:52;;;;;;;3.70;2.05;;;10.80;99.90;;;;;;5069528;28;20239;-67
2023/05/02 04:34:20;;;;;;;2.78;2.10;;;10.80;99.90;;;;;;5072129;28;20197;-66
2023/05/02 04:36:48;;;;;;;2.63;1.85;;;10.80;99.90;;;;;;5071550;28;20189;-67
2023/05/02 04:39:15;;;;;;;2.88;2.13;;;10.80;99.90;;;;;;5076138;28;20540;-66
2023/05/02 04:41:45;;;;;;;3.20;2.10;;;10.90;99.90;;;;;;5071777;28;20801;-66
2023/05/02 04:44:12;;;;;;;2.78;2.13;;;10.90;99.90;;;;;;5084248;28;20192;-67
2023/05/02 04:46:40;;;;;;;3.03;2.17;;;10.90;99.90;;;;;;5080662;28;20571;-67
2023/05/02 04:49:10;;;;;;;2.83;2.15;;;10.90;99.90;;;;;;5082630;28;20252;-66
2023/05/02 04:51:37;;;;;;;3.15;2.10;;;10.90;99.90;;;;;;5080019;28;20752;-67
2023/05/02 04:54:04;;;;;;;4.38;2.10;;;11.00;99.90;;;;;;5071261;28;20239;-66
2023/05/02 04:56:32;;;;;;;5.75;2.55;;;11.00;99.90;;;;;;5077034;28;20220;-66
2023/05/02 04:58:59;;;;;;;5.80;3.50;;;11.00;99.90;;;;;;5081900;28;20550;-66
2023/05/02 05:01:28;;;;;;;5.35;2.65;;;11.10;99.90;;;;;;5077524;28;20193;-66
2023/05/02 05:03:57;;;;;;;5.30;3.22;;;11.10;99.90;;;;;;5068289;28;20280;-66
2023/05/02 05:06:30;;;;;;;3.10;1.90;;;11.10;99.90;;;;;;5071414;28;20194;-66
2023/05/02 05:08:59;;;;;;;3.33;2.40;;;11.20;99.90;;;;;;5080450;28;20217;-67
2023/05/02 05:11:26;;;;;;;4.45;2.55;;;11.20;99.90;;;;;;5091868;28;20285;-67
2023/05/02 05:13:54;;;;;;;3.20;2.10;;;11.20;99.90;;;;;;5076500;28;20185;-67
2023/05/02 05:16:29;;;;;;;3.55;2.25;;;11.20;99.90;;;;;;5071178;28;20221;-67
2023/05/02 05:19:00;;;;;;;3.95;2.22;;;11.30;99.90;;;;;;5074102;28;20196;-67
2023/05/02 05:21:28;;;;;;;3.92;2.55;;;11.30;99.90;;;;;;5072552;28;20190;-67
2023/05/02 05:23:57;;;;;;;5.40;2.95;;;11.30;99.90;;;;;;5075221;28;20231;-66
2023/05/02 05:26:25;;;;;;;4.13;2.75;;;11.30;99.90;;;;;;5074613;28;20189;-66
2023/05/02 05:28:53;;;;;;;3.92;2.60;;;11.30;99.90;;;;;;5074612;28;20773;-67
2023/05/02 05:31:21;;;;;;;4.18;2.78;;;11.30;99.90;;;;;;5075147;28;20193;-66
2023/05/02 05:33:48;;;;;;;5.30;2.67;;;11.40;99.90;;;;;;5068962;28;20194;-67
2023/05/02 05:36:17;;;;;;;9.27;5.15;;;11.40;99.40;;;;;;5076866;28;20273;-68
2023/05/02 05:38:45;;;;;;;6.88;2.97;;;11.40;99.60;;;;;;5074214;28;20194;-67
2023/05/02 05:41:12;;;;;;;6.43;3.00;;;11.50;99.80;;;;;;5080408;28;20192;-67
2023/05/02 05:43:49;;;;;;;3.40;2.38;;;11.60;99.80;;;;;;5079968;28;20194;-67
2023/05/02 05:46:17;;;;;;;3.70;2.15;;;11.70;99.90;;;;;;5075237;28;20217;-68
2023/05/02 05:48:45;;;;;;;3.38;2.08;;;11.80;99.90;;;;;;5084713;28;20641;-67
2023/05/02 05:51:12;;;;;;;2.95;2.00;;;11.80;99.10;;;;;;5077830;28;20277;-67
2023/05/02 05:53:40;;;;;;;3.47;1.75;;;11.80;98.60;;;;;;5092068;28;20192;-67
2023/05/02 05:56:11;;;;;;;2.30;1.52;;;11.90;98.50;;;;;;5078808;28;20194;-67
2023/05/02 05:58:39;;;;;;;2.63;1.80;;;11.90;97.90;;;;;;5078612;28;20289;-67
2023/05/02 06:01:07;;;;;;;5.00;1.98;;;12.00;97.80;;;;;;5085817;28;20212;-67
2023/05/02 06:03:35;;;;;;;4.30;2.58;;;12.10;97.80;;;;;;5082436;28;20276;-67
2023/05/02 06:06:02;;;;;;;6.35;2.00;;;12.20;97.20;;;;;;5073488;28;20502;-67
2023/05/02 06:08:29;;;;;;;3.55;2.45;;;12.30;97.20;;;;;;5074296;28;20241;-67
2023/05/02 06:10:57;;;;;;;2.63;2.13;;;12.40;97.40;;;;;;5078110;28;20681;-67
2023/05/02 06:13:25;;;;;;;3.07;1.77;;;12.50;97.50;;;;;;5078984;28;20521;-67
2023/05/02 06:15:53;;;;;;;3.03;1.50;;;12.50;97.60;;;;;;5074836;28;20501;-67
2023/05/02 06:18:27;;;;;;;3.45;2.38;;;12.60;96.70;;;;;;5091213;28;20435;-67
2023/05/02 06:20:59;;;;;;;3.00;2.03;;;12.70;96.10;;;;;;5074277;28;20181;-66
2023/05/02 06:23:26;;;;;;;3.40;1.97;;;12.70;96.80;;;;;;5074566;28;20865;-66
2023/05/02 06:25:54;;;;;;;2.83;2.20;;;12.80;96.80;;;;;;5073480;28;20486;-66
2023/05/02 06:28:23;;;;;;;3.27;2.33;;;12.80;96.70;;;;;;5074013;28;20182;-66
2023/05/02 06:30:58;;;;;;;2.77;2.17;;;12.90;96.30;;;;;;5074508;28;21017;-66
2023/05/02 06:33:25;;;;;;;2.30;1.83;;;13.00;95.60;;;;;;5074065;28;20470;-66
2023/05/02 06:35:52;;;;;;;5.10;2.40;;;13.00;95.00;;;;;;5074986;28;20867;-67
2023/05/02 06:38:21;;;;;;;3.80;2.53;;;13.10;93.90;;;;;;5073087;28;20794;-67
2023/05/02 06:40:49;;;;;;;3.80;2.40;;;13.10;93.60;;;;;;5076926;28;20775;-68
2023/05/02 06:43:17;;;;;;;4.90;3.53;;;13.10;93.60;;;;;;5075502;28;20436;-67
2023/05/02 06:45:45;;;;;;;2.67;2.07;;;13.20;93.60;;;;;;5082223;28;20480;-68
2023/05/02 06:48:12;;;;;;;4.20;2.30;;;13.30;93.80;;;;;;5074326;28;20527;-68
2023/05/02 06:50:40;;;;;;;3.93;2.47;;;13.50;93.90;;;;;;5074201;28;20491;-68
2023/05/02 06:53:07;;;;;;;5.50;3.60;;;13.50;93.30;;;;;;5074049;28;20806;-67
2023/05/02 06:55:34;;;;;;;3.10;2.43;;;13.70;93.10;;;;;;5074332;28;20469;-67
2023/05/02 06:58:01;;;;;;;3.40;2.40;;;13.80;92.90;;;;;;5074671;28;20498;-67
2023/05/02 07:00:28;;;;;;;2.90;2.30;;;13.90;92.80;;;;;;5071890;28;20535;-67
2023/05/02 07:02:56;;;;;;;7.93;3.23;;;13.90;91.60;;;;;;5076627;28;20444;-67
2023/05/02 07:05:24;;;;;;;3.30;2.60;;;13.90;90.20;;;;;;5073994;28;20437;-68
2023/05/02 07:07:51;;;;;;;4.73;3.10;;;14.00;90.60;;;;;;5082360;28;20848;-68
2023/05/02 07:10:18;;;;;;;4.13;3.00;;;14.10;90.50;;;;;;5072921;28;20483;-68
2023/05/02 07:12:45;;;;;;;3.00;2.43;;;14.30;91.10;;;;;;5075948;28;20471;-67
2023/05/02 07:15:15;;;;;;;4.23;3.47;;;14.50;91.50;;;;;;5077783;28;20468;-67
2023/05/02 07:17:48;;;;;;;3.63;2.50;;;14.70;91.20;;;;;;5073673;28;20447;-68
2023/05/02 07:20:16;;;;;;;5.70;2.43;;;15.00;90.80;;;;;;5073778;28;20531;-68
2023/05/02 07:22:44;;;;;;;5.43;2.90;;;15.20;90.90;;;;;;5075861;28;20856;-68
2023/05/02 07:25:12;;;;;;;3.70;2.73;;;15.40;90.70;;;;;;5073294;28;20436;-68
2023/05/02 07:27:39;;;;;;;3.77;3.00;;;15.50;84.10;;;;;;5073325;28;20984;-68
2023/05/02 07:30:09;;;;;;;4.10;2.90;;;15.60;81.30;;;;;;5077581;28;20519;-68
2023/05/02 07:32:36;;;;;;;3.60;2.87;;;15.70;81.40;;;;;;5069379;28;20538;-68
2023/05/02 07:35:03;;;;;;;3.70;2.60;;;15.90;81.40;;;;;;5073544;28;20502;-68
2023/05/02 07:37:35;;;;;;;4.00;3.40;;;16.20;82.00;;;;;;5073227;28;20841;-67
2023/05/02 07:40:03;;;;;;;3.90;2.80;;;16.50;81.90;;;;;;5073087;28;20444;-68
2023/05/02 07:42:30;;;;;;;3.60;2.73;;;16.70;80.80;;;;;;5074889;28;20494;-68
2023/05/02 07:44:59;;;;;;;4.27;3.13;;;16.70;79.30;;;;;;5078200;28;20474;-68
2023/05/02 07:47:26;;;;;;;4.40;3.27;;;16.90;79.10;;;;;;5072974;28;20444;-68
2023/05/02 07:49:54;;;;;;;3.63;3.10;;;16.90;76.10;;;;;;5072871;28;20480;-68
2023/05/02 07:52:21;;;;;;;5.00;4.07;;;17.00;74.50;;;;;;5072608;28;20505;-68
2023/05/02 07:54:50;;;;;;;4.70;3.63;;;17.10;74.10;;;;;;5072876;28;20475;-68
2023/05/02 07:57:20;;;;;;;3.90;3.13;;;17.20;74.70;;;;;;5068368;28;20444;-68
2023/05/02 07:59:47;;;;;;;4.83;3.20;;;17.40;74.90;;;;;;5071837;28;20526;-68
2023/05/02 08:02:22;;;;;;;3.73;3.07;;;17.60;72.50;;;;;;5072233;28;20444;-68
2023/05/02 08:04:51;;;;;;;4.87;3.10;;;17.60;72.40;;;;;;5069627;28;20522;-68
2023/05/02 08:07:18;;;;;;;3.77;2.73;;;17.70;70.70;;;;;;5069088;28;20472;-68
2023/05/02 08:09:46;;;;;;;3.50;3.00;;;17.80;71.00;;;;;;5076544;28;20479;-68
2023/05/02 08:12:14;;;;;;;6.10;3.70;;;17.90;71.10;;;;;;5072994;28;20447;-68
2023/05/02 08:14:41;;;;;;;4.30;3.23;;;17.90;71.80;;;;;;5072664;28;20811;-68
2023/05/02 08:17:08;;;;;;;5.37;3.87;;;17.80;70.10;;;;;;5074335;28;20529;-67
2023/05/02 08:19:38;;;;;;;5.10;3.40;;;17.70;71.20;;;;;;5072460;28;20444;-68
2023/05/02 08:22:06;;;;;;;4.00;3.30;;;17.50;69.70;;;;;;5072015;28;20432;-68
2023/05/02 08:24:33;;;;;;;5.97;3.50;;;17.40;71.10;;;;;;5072333;28;20443;-68
2023/05/02 08:27:02;;;;;;;4.30;3.27;;;17.30;72.00;;;;;;5071960;28;20851;-68
2023/05/02 08:29:31;;;;;;;6.13;4.60;;;17.20;71.30;;;;;;5072012;28;20490;-68
2023/05/02 08:31:58;;;;;;;7.40;3.70;;;17.30;72.40;;;;;;5077391;28;20513;-68
2023/05/02 08:34:26;;;;;;;5.50;3.80;;;17.20;70.70;;;;;;5075771;28;20456;-68
2023/05/02 08:36:53;;;;;;;6.63;4.10;;;17.10;69.30;;;;;;5072310;28;20475;-68
2023/05/02 08:39:21;;;;;;;6.90;4.50;;;17.00;71.90;;;;;;5080327;28;20971;-68
2023/05/02 08:41:51;;;;;;;7.27;4.70;;;16.90;73.80;;;;;;5072261;28;20443;-68
2023/05/02 08:44:18;;;;;;;5.50;4.57;;;16.80;73.50;;;;;;5072477;28;20531;-68
2023/05/02 08:46:49;;;;;;;6.13;4.63;;;16.70;75.40;;;;;;5072126;28;20455;-68
2023/05/02 08:49:22;;;;;;;7.10;5.00;;;16.50;76.70;;;;;;5076317;28;20488;-68
2023/05/02 08:51:50;;;;;;;6.10;4.30;;;16.40;75.30;;;;;;5071912;28;20435;-68
2023/05/02 08:54:18;;;;;;;4.80;3.90;;;16.30;75.10;;;;;;5072125;28;20927;-68
2023/05/02 08:56:46;;;;;;;6.30;5.10;;;16.30;74.40;;;;;;5076585;28;20535;-68
2023/05/02 08:59:13;;;;;;;7.03;5.63;;;16.30;75.00;;;;;;5072397;28;20480;-68
2023/05/02 09:01:42;;;;;;;5.57;4.83;;;16.30;75.10;;;;;;5075421;28;20447;-68
2023/05/02 09:04:11;;;;;;;5.90;5.30;;;16.40;75.80;;;;;;5072267;28;20440;-68
2023/05/02 09:06:38;;;;;;;7.60;4.63;;;16.50;76.70;;;;;;5072171;28;20538;-68
2023/05/02 09:09:05;;;;;;;5.93;4.23;;;16.60;79.10;;;;;;5076305;28;20518;-68
2023/05/02 09:11:32;;;;;;;5.73;5.00;;;16.70;76.50;;;;;;5071498;28;20779;-68
2023/05/02 09:14:02;;;;;;;5.17;4.13;;;16.80;75.90;;;;;;5068585;28;20432;-68
2023/05/02 09:16:30;;;;;;;10.60;6.07;;;16.90;76.90;;;;;;5075970;28;20468;-68
2023/05/02 09:19:01;;;;;;;6.10;4.60;;;17.00;76.90;;;;;;5071963;28;20431;-68
2023/05/02 09:21:38;;;;;;;7.10;4.70;;;17.10;74.40;;;;;;5068516;28;20506;-68
2023/05/02 09:24:16;;;;;;;7.47;5.73;;;17.30;73.50;;;;;;5069378;28;20790;-68
2023/05/02 09:26:55;;;;;;;5.23;4.63;;;17.60;72.90;;;;;;5071862;28;20437;-68
2023/05/02 09:29:22;;;;;;;6.60;4.77;;;17.90;70.70;;;;;;5076432;28;20471;-68
2023/05/02 09:31:49;;;;;;;5.77;4.47;;;18.20;70.40;;;;;;5071334;28;20432;-68
2023/05/02 09:34:17;;;;;;;9.10;5.40;;;18.50;70.00;;;;;;5071905;28;20462;-68
2023/05/02 09:36:46;;;;;;;6.10;4.90;;;18.90;70.70;;;;;;5076475;28;20519;-68
2023/05/02 09:39:16;;;;;;;7.97;4.83;;;19.10;68.00;;;;;;5071966;28;20505;-68
2023/05/02 09:41:43;;;;;;;5.17;4.43;;;19.30;69.40;;;;;;5071335;28;20436;-68
2023/05/02 09:44:13;;;;;;;4.67;3.80;;;19.40;67.70;;;;;;5076050;28;20977;-68
2023/05/02 09:46:41;;;;;;;5.93;4.97;;;19.50;66.80;;;;;;5071681;28;20518;-68
2023/05/02 09:49:08;;;;;;;6.80;4.60;;;19.50;65.90;;;;;;5071879;28;20484;-68
2023/05/02 09:51:37;;;;;;;8.40;4.83;;;19.30;65.80;;;;;;5071245;28;20501;-68
2023/05/02 09:54:07;;;;;;;5.97;5.37;;;19.10;67.10;;;;;;5079497;28;20468;-68
2023/05/02 09:56:52;;;;;;;6.30;5.57;;;18.80;67.90;;;;;;5072754;28;20443;-68
2023/05/02 09:59:19;;;;;;;6.00;5.40;;;18.40;69.20;;;;;;5070225;28;20524;-68
2023/05/02 10:01:54;;;;;;;6.87;5.90;;;18.10;69.30;;;;;;5071552;28;20865;-68
2023/05/02 10:04:21;;;;;;;6.53;5.67;;;17.80;70.50;;;;;;5071079;28;20482;-67
2023/05/02 10:06:52;;;;;;;7.17;6.40;;;17.40;73.10;;;;;;5072374;28;20444;-68
2023/05/02 10:09:21;;;;;;;10.30;6.63;;;17.10;74.70;;;;;;5079015;28;20501;-67
2023/05/02 10:11:53;;;;;;;10.83;6.80;;;16.80;76.80;;;;;;5073922;28;20466;-68
2023/05/02 10:14:22;;;;;;;8.00;7.20;;;16.60;79.10;;;;;;5074139;28;20439;-68
2023/05/02 10:16:55;;;;;;;8.37;7.13;;;16.50;81.50;;;;;;5074430;28;20483;-68
2023/05/02 10:19:27;;;;;;;8.70;7.73;;;16.30;80.80;;;;;;5074267;28;20448;-68
2023/05/02 10:22:02;;;;;;;8.43;7.27;;;16.20;82.90;;;;;;5071817;28;20444;-67
2023/05/02 10:24:32;;;;;;;9.40;7.33;;;16.10;83.50;;;;;;5073150;28;20798;-67
2023/05/02 10:26:59;;;;;;;7.63;6.80;;;16.10;85.40;;;;;;5073413;28;20822;-68
2023/05/02 10:29:29;;;;;;;8.10;7.30;;;16.10;85.90;;;;;;5074528;28;20958;-67
2023/05/02 10:31:57;;;;;;;6.97;6.27;;;16.20;86.60;;;;;;5074027;28;20487;-67
2023/05/02 10:34:24;;;;;;;8.23;7.43;;;16.30;87.50;;;;;;5074860;28;20435;-68
2023/05/02 10:36:51;;;;;;;8.77;7.97;;;16.40;87.60;;;;;;5073288;28;20859;-67
2023/05/02 10:39:23;;;;;;;8.30;7.37;;;16.50;86.90;;;;;;5074653;28;20461;-68
2023/05/02 10:41:54;;;;;;;7.53;6.73;;;16.60;84.60;;;;;;5073278;28;20435;-68
2023/05/02 10:44:32;;;;;;;6.30;5.30;;;16.60;82.10;;;;;;5070393;28;20512;-68
2023/05/02 10:47:00;;;;;;;9.53;5.83;;;16.60;81.00;;;;;;5069729;28;20483;-67
2023/05/02 10:49:28;;;;;;;6.10;5.40;;;16.50;79.10;;;;;;5071538;28;20456;-67
2023/05/02 10:51:55;;;;;;;8.30;6.50;;;16.50;79.20;;;;;;5074172;28;20440;-68
2023/05/02 10:54:24;;;;;;;5.70;4.80;;;16.40;79.60;;;;;;5075466;28;20530;-67
2023/05/02 10:57:08;;;;;;;7.37;5.83;;;16.30;79.00;;;;;;5073414;28;20440;-67
2023/05/02 10:59:39;;;;;;;6.50;5.83;;;16.20;80.50;;;;;;5073370;28;20491;-67
2023/05/02 11:02:27;;;;;;;8.10;5.67;;;16.20;81.20;;;;;;5070654;28;20479;-67
2023/05/02 11:05:02;;;;;;;9.53;5.43;;;16.30;82.50;;;;;;5075134;28;20551;-68
2023/05/02 11:07:30;;;;;;;6.70;5.83;;;16.40;80.00;;;;;;5075487;28;20539;-68
2023/05/02 11:10:27;;;;;;;6.67;5.33;;;16.70;79.50;;;;;;5073325;28;20872;-68
2023/05/02 11:12:56;;;;;;;5.90;5.30;;;16.70;79.00;;;;;;5070860;28;20468;-67
2023/05/02 11:15:59;;;;;;;5.70;5.13;;;16.50;79.50;;;;;;5075241;28;20510;-67
2023/05/02 11:18:26;;;;;;;7.30;5.43;;;16.30;76.40;;;;;;5050232;28;20440;-67
2023/05/02 11:21:15;;;;;;;9.37;6.83;;;16.00;77.80;;;;;;5069987;28;20436;-68
2023/05/02 11:23:42;;;;;;;7.87;6.77;;;15.90;80.40;;;;;;5069455;28;20490;-68
2023/05/02 11:26:22;;;;;;;7.63;6.93;;;15.90;82.80;;;;;;5073594;28;20456;-68
2023/05/02 11:28:50;;;;;;;11.80;10.43;;;16.00;82.40;;;;;;5073627;28;20436;-68
2023/05/02 11:32:03;;;;;;;7.63;6.30;;;16.00;81.10;;;;;;5073573;28;20487;-68
2023/05/02 11:34:44;;;;;;;4.90;4.40;;;16.00;78.60;;;;;;5072756;28;20478;-68
2023/05/02 11:37:13;;;;;;;6.23;5.10;;;16.00;76.50;;;;;;5071336;28;20494;-68
2023/05/02 11:39:40;;;;;;;7.60;6.80;;;15.90;76.40;;;;;;5073445;28;20874;-68
2023/05/02 11:42:07;;;;;;;6.60;5.90;;;15.80;77.00;;;;;;5073214;28;20432;-68
2023/05/02 11:44:56;;;;;;;5.63;4.90;;;15.70;77.10;;;;;;5073181;28;20539;-68
2023/05/02 11:47:23;;;;;;;5.70;5.10;;;15.60;76.90;;;;;;5067451;28;20456;-68
2023/05/02 11:49:52;;;;;;;6.10;5.43;;;15.40;75.00;;;;;;5072965;28;20440;-68
2023/05/02 11:52:20;;;;;;;5.70;4.60;;;15.20;72.80;;;;;;5073084;28;20476;-67
2023/05/02 11:54:48;;;;;;;7.10;6.40;;;15.10;74.70;;;;;;5072863;28;20435;-68
2023/05/02 11:57:15;;;;;;;6.90;5.90;;;15.00;78.00;;;;;;5073085;28;20531;-67
2023/05/02 11:59:53;;;;;;;6.60;4.90;;;14.90;79.50;;;;;;5072888;28;20424;-67
2023/05/02 12:02:21;;;;;;;8.70;5.93;;;14.80;81.40;;;;;;5068751;28;20464;-68
2023/05/02 12:04:48;;;;;;;7.63;5.90;;;14.80;81.00;;;;;;5072781;28;20813;-68
2023/05/02 12:07:15;;;;;;;6.40;5.30;;;14.80;82.20;;;;;;5072970;28;20779;-68
2023/05/02 12:09:52;;;;;;;6.27;5.23;;;14.80;82.70;;;;;;5072794;28;20448;-68
2023/05/02 12:12:20;;;;;;;7.93;4.47;;;14.90;81.10;;;;;;5070073;28;20432;-68
2023/05/02 12:14:47;;;;;;;6.40;4.60;;;14.80;81.00;;;;;;5072503;28;20443;-68
2023/05/02 12:17:16;;;;;;;6.03;4.80;;;14.60;80.90;;;;;;5072562;28;20436;-67
2023/05/02 12:19:43;;;;;;;5.50;4.33;;;14.60;82.80;;;;;;5072830;28;20527;-68
2023/05/02 12:22:12;;;;;;;6.70;5.47;;;14.50;82.40;;;;;;5072664;28;20531;-68
2023/05/02 12:24:40;;;;;;;4.70;4.10;;;14.50;83.00;;;;;;5072667;28;20444;-68
2023/05/02 12:27:13;;;;;;;5.10;4.13;;;14.50;85.00;;;;;;5077648;28;20450;-68
2023/05/02 12:29:41;;;;;;;4.00;3.60;;;14.50;85.80;;;;;;5072302;28;20473;-67
2023/05/02 12:32:08;;;;;;;8.10;4.63;;;14.50;85.70;;;;;;5072499;28;20483;-68
2023/05/02 12:34:38;;;;;;;4.80;4.30;;;14.60;86.40;;;;;;5070249;28;20460;-68
2023/05/02 12:37:05;;;;;;;6.73;4.20;;;14.60;86.50;;;;;;5071583;28;20505;-67
2023/05/02 12:39:36;;;;;;;5.73;4.77;;;14.70;86.30;;;;;;5072353;28;20966;-68
2023/05/02 12:42:10;;;;;;;6.13;4.10;;;14.80;87.70;;;;;;5072321;28;20447;-68
2023/05/02 12:44:38;;;;;;;4.87;4.30;;;14.80;88.50;;;;;;5072256;28;20473;-68
2023/05/02 12:47:12;;;;;;;6.27;5.17;;;14.90;87.70;;;;;;5072151;28;20452;-67
2023/05/02 12:49:55;;;;;;;6.00;4.33;;;15.00;88.00;;;;;;5072279;28;20530;-68
2023/05/02 12:52:45;;;;;;;6.27;4.33;;;15.10;88.20;;;;;;5072112;28;20510;-68
2023/05/02 12:55:18;;;;;;;5.13;3.93;;;15.30;89.10;;;;;;5071408;28;20435;-68
2023/05/02 12:57:45;;;;;;;5.40;4.90;;;15.50;88.20;;;;;;5082487;28;20985;-68
2023/05/02 13:00:15;;;;;;;6.10;4.20;;;15.80;86.80;;;;;;5090169;28;20471;-68